sensor_id;sensor_type;location;lat;lon;timestamp;P1;durP1;ratioP1;P2;durP2;ratioP2
73733;SDS011;62039;50.000;9.064;2023-08-24T00:00:19;2.57;;;2.37;;
73733;SDS011;62039;50.000;9.064;2023-08-24T00:02:46;4.13;;;2.07;;
73733;SDS011;62039;50.000;9.064;2023-08-24T00:05:13;2.90;;;2.10;;
73733;SDS011;62039;50.000;9.064;2023-08-24T00:07:41;2.60;;;2.20;;
73733;SDS011;62039;50.000;9.064;2023-08-24T00:10:08;3.20;;;1.83;;
73733;SDS011;62039;50.000;9.064;2023-08-24T00:12:38;2.33;;;1.93;;
73733;SDS011;62039;50.000;9.064;2023-08-24T00:15:07;1.73;;;1.63;;
73733;SDS011;62039;50.000;9.064;2023-08-24T00:17:35;2.17;;;1.97;;
73733;SDS011;62039;50.000;9.064;2023-08-24T00:20:03;2.10;;;2.00;;
73733;SDS011;62039;50.000;9.064;2023-08-24T00:22:31;2.50;;;1.93;;
73733;SDS011;62039;50.000;9.064;2023-08-24T00:24:58;2.20;;;1.97;;
73733;SDS011;62039;50.000;9.064;2023-08-24T00:27:24;3.03;;;2.10;;
73733;SDS011;62039;50.000;9.064;2023-08-24T00:29:54;2.20;;;2.00;;
73733;SDS011;62039;50.000;9.064;2023-08-24T00:32:21;2.27;;;2.00;;
73733;SDS011;62039;50.000;9.064;2023-08-24T00:34:49;2.27;;;1.80;;
73733;SDS011;62039;50.000;9.064;2023-08-24T00:37:16;5.07;;;2.37;;
73733;SDS011;62039;50.000;9.064;2023-08-24T00:39:43;2.33;;;1.97;;
73733;SDS011;62039;50.000;9.064;2023-08-24T00:42:10;2.10;;;1.87;;
73733;SDS011;62039;50.000;9.064;2023-08-24T00:44:36;1.83;;;1.60;;
73733;SDS011;62039;50.000;9.064;2023-08-24T00:47:06;2.13;;;1.90;;
73733;SDS011;62039;50.000;9.064;2023-08-24T00:49:34;3.33;;;1.93;;
73733;SDS011;62039;50.000;9.064;2023-08-24T00:52:01;3.13;;;2.00;;
73733;SDS011;62039;50.000;9.064;2023-08-24T00:54:29;2.33;;;1.80;;
73733;SDS011;62039;50.000;9.064;2023-08-24T00:56:56;2.13;;;1.93;;
73733;SDS011;62039;50.000;9.064;2023-08-24T00:59:23;3.20;;;2.33;;
73733;SDS011;62039;50.000;9.064;2023-08-24T01:01:50;4.03;;;2.30;;
73733;SDS011;62039;50.000;9.064;2023-08-24T01:04:20;2.17;;;1.97;;
73733;SDS011;62039;50.000;9.064;2023-08-24T01:06:48;2.00;;;1.90;;
73733;SDS011;62039;50.000;9.064;2023-08-24T01:09:15;2.10;;;1.90;;
73733;SDS011;62039;50.000;9.064;2023-08-24T01:11:45;2.40;;;2.20;;
73733;SDS011;62039;50.000;9.064;2023-08-24T01:14:24;2.20;;;1.90;;
73733;SDS011;62039;50.000;9.064;2023-08-24T01:17:01;2.50;;;1.80;;
73733;SDS011;62039;50.000;9.064;2023-08-24T01:19:37;2.80;;;2.20;;
73733;SDS011;62039;50.000;9.064;2023-08-24T01:22:07;1.80;;;1.70;;
73733;SDS011;62039;50.000;9.064;2023-08-24T01:24:38;2.00;;;1.83;;
73733;SDS011;62039;50.000;9.064;2023-08-24T01:27:14;2.17;;;1.97;;
73733;SDS011;62039;50.000;9.064;2023-08-24T01:29:41;2.83;;;1.90;;
73733;SDS011;62039;50.000;9.064;2023-08-24T01:32:09;2.97;;;2.20;;
73733;SDS011;62039;50.000;9.064;2023-08-24T01:34:36;3.37;;;2.00;;
73733;SDS011;62039;50.000;9.064;2023-08-24T01:37:03;2.20;;;2.00;;
73733;SDS011;62039;50.000;9.064;2023-08-24T01:39:34;2.60;;;2.40;;
73733;SDS011;62039;50.000;9.064;2023-08-24T01:42:07;2.53;;;2.33;;
73733;SDS011;62039;50.000;9.064;2023-08-24T01:44:39;1.97;;;1.80;;
73733;SDS011;62039;50.000;9.064;2023-08-24T01:47:08;2.30;;;2.10;;
73733;SDS011;62039;50.000;9.064;2023-08-24T01:49:37;3.17;;;1.93;;
73733;SDS011;62039;50.000;9.064;2023-08-24T01:52:07;2.47;;;1.90;;
73733;SDS011;62039;50.000;9.064;2023-08-24T01:54:34;2.20;;;2.00;;
73733;SDS011;62039;50.000;9.064;2023-08-24T01:57:04;2.73;;;1.90;;
73733;SDS011;62039;50.000;9.064;2023-08-24T01:59:31;1.70;;;1.60;;
73733;SDS011;62039;50.000;9.064;2023-08-24T02:02:01;2.97;;;1.80;;
73733;SDS011;62039;50.000;9.064;2023-08-24T02:04:28;2.17;;;1.93;;
73733;SDS011;62039;50.000;9.064;2023-08-24T02:06:55;2.40;;;2.03;;
73733;SDS011;62039;50.000;9.064;2023-08-24T02:09:22;2.00;;;1.80;;
73733;SDS011;62039;50.000;9.064;2023-08-24T02:11:49;1.87;;;1.77;;
73733;SDS011;62039;50.000;9.064;2023-08-24T02:14:16;1.80;;;1.70;;
73733;SDS011;62039;50.000;9.064;2023-08-24T02:16:43;2.00;;;1.80;;
73733;SDS011;62039;50.000;9.064;2023-08-24T02:19:12;3.27;;;2.00;;
73733;SDS011;62039;50.000;9.064;2023-08-24T02:21:39;3.20;;;2.00;;
73733;SDS011;62039;50.000;9.064;2023-08-24T02:24:06;2.20;;;2.00;;
73733;SDS011;62039;50.000;9.064;2023-08-24T02:26:33;2.13;;;1.93;;
73733;SDS011;62039;50.000;9.064;2023-08-24T02:29:00;2.13;;;1.97;;
73733;SDS011;62039;50.000;9.064;2023-08-24T02:31:27;5.00;;;2.20;;
73733;SDS011;62039;50.000;9.064;2023-08-24T02:33:54;2.20;;;2.00;;
73733;SDS011;62039;50.000;9.064;2023-08-24T02:36:24;2.03;;;1.90;;
73733;SDS011;62039;50.000;9.064;2023-08-24T02:38:51;2.17;;;1.97;;
73733;SDS011;62039;50.000;9.064;2023-08-24T02:41:18;2.37;;;2.17;;
73733;SDS011;62039;50.000;9.064;2023-08-24T02:43:45;1.70;;;1.60;;
73733;SDS011;62039;50.000;9.064;2023-08-24T02:46:13;2.33;;;2.13;;
73733;SDS011;62039;50.000;9.064;2023-08-24T02:48:40;2.70;;;2.00;;
73733;SDS011;62039;50.000;9.064;2023-08-24T02:51:07;1.83;;;1.73;;
73733;SDS011;62039;50.000;9.064;2023-08-24T02:53:37;1.97;;;1.87;;
73733;SDS011;62039;50.000;9.064;2023-08-24T02:56:04;1.90;;;1.80;;
73733;SDS011;62039;50.000;9.064;2023-08-24T02:58:31;1.70;;;1.60;;
73733;SDS011;62039;50.000;9.064;2023-08-24T03:00:58;2.70;;;1.97;;
73733;SDS011;62039;50.000;9.064;2023-08-24T03:03:25;2.47;;;2.10;;
73733;SDS011;62039;50.000;9.064;2023-08-24T03:05:53;2.03;;;1.90;;
73733;SDS011;62039;50.000;9.064;2023-08-24T03:08:23;2.57;;;1.80;;
73733;SDS011;62039;50.000;9.064;2023-08-24T03:10:53;3.00;;;1.93;;
73733;SDS011;62039;50.000;9.064;2023-08-24T03:13:20;1.90;;;1.80;;
73733;SDS011;62039;50.000;9.064;2023-08-24T03:15:47;2.30;;;2.10;;
73733;SDS011;62039;50.000;9.064;2023-08-24T03:18:15;2.80;;;2.17;;
73733;SDS011;62039;50.000;9.064;2023-08-24T03:20:43;2.40;;;2.20;;
73733;SDS011;62039;50.000;9.064;2023-08-24T03:23:11;2.37;;;2.17;;
73733;SDS011;62039;50.000;9.064;2023-08-24T03:25:38;3.17;;;2.10;;
73733;SDS011;62039;50.000;9.064;2023-08-24T03:28:09;3.07;;;2.00;;
73733;SDS011;62039;50.000;9.064;2023-08-24T03:30:37;2.23;;;2.10;;
73733;SDS011;62039;50.000;9.064;2023-08-24T03:33:05;2.43;;;2.23;;
73733;SDS011;62039;50.000;9.064;2023-08-24T03:35:32;2.03;;;1.90;;
73733;SDS011;62039;50.000;9.064;2023-08-24T03:38:00;3.27;;;2.23;;
73733;SDS011;62039;50.000;9.064;2023-08-24T03:40:27;2.10;;;1.90;;
73733;SDS011;62039;50.000;9.064;2023-08-24T03:42:54;2.30;;;2.10;;
73733;SDS011;62039;50.000;9.064;2023-08-24T03:45:23;2.90;;;2.00;;
73733;SDS011;62039;50.000;9.064;2023-08-24T03:47:50;3.50;;;2.53;;
73733;SDS011;62039;50.000;9.064;2023-08-24T03:50:18;2.67;;;2.23;;
73733;SDS011;62039;50.000;9.064;2023-08-24T03:52:45;2.33;;;2.00;;
73733;SDS011;62039;50.000;9.064;2023-08-24T03:55:12;3.40;;;2.43;;
73733;SDS011;62039;50.000;9.064;2023-08-24T03:57:39;2.43;;;2.17;;
73733;SDS011;62039;50.000;9.064;2023-08-24T04:00:06;2.10;;;1.90;;
73733;SDS011;62039;50.000;9.064;2023-08-24T04:02:37;3.40;;;2.37;;
73733;SDS011;62039;50.000;9.064;2023-08-24T04:05:04;2.37;;;2.17;;
73733;SDS011;62039;50.000;9.064;2023-08-24T04:07:31;3.37;;;2.33;;
73733;SDS011;62039;50.000;9.064;2023-08-24T04:09:58;2.67;;;2.17;;
73733;SDS011;62039;50.000;9.064;2023-08-24T04:12:25;3.30;;;2.40;;
73733;SDS011;62039;50.000;9.064;2023-08-24T04:14:52;2.37;;;2.03;;
73733;SDS011;62039;50.000;9.064;2023-08-24T04:17:20;2.37;;;2.17;;
73733;SDS011;62039;50.000;9.064;2023-08-24T04:19:49;2.40;;;2.20;;
73733;SDS011;62039;50.000;9.064;2023-08-24T04:22:16;2.27;;;2.07;;
73733;SDS011;62039;50.000;9.064;2023-08-24T04:24:43;2.30;;;1.93;;
73733;SDS011;62039;50.000;9.064;2023-08-24T04:27:10;2.33;;;2.13;;
73733;SDS011;62039;50.000;9.064;2023-08-24T04:29:37;6.80;;;3.00;;
73733;SDS011;62039;50.000;9.064;2023-08-24T04:32:04;2.57;;;2.00;;
73733;SDS011;62039;50.000;9.064;2023-08-24T04:34:32;3.80;;;2.37;;
73733;SDS011;62039;50.000;9.064;2023-08-24T04:37:02;2.53;;;2.07;;
73733;SDS011;62039;50.000;9.064;2023-08-24T04:39:29;6.43;;;2.53;;
73733;SDS011;62039;50.000;9.064;2023-08-24T04:41:56;2.97;;;2.30;;
73733;SDS011;62039;50.000;9.064;2023-08-24T04:44:23;3.77;;;2.30;;
73733;SDS011;62039;50.000;9.064;2023-08-24T04:46:50;2.50;;;2.00;;
73733;SDS011;62039;50.000;9.064;2023-08-24T04:49:17;2.73;;;2.10;;
73733;SDS011;62039;50.000;9.064;2023-08-24T04:51:44;3.07;;;1.80;;
73733;SDS011;62039;50.000;9.064;2023-08-24T04:54:13;2.27;;;2.07;;
73733;SDS011;62039;50.000;9.064;2023-08-24T04:56:40;2.07;;;1.87;;
73733;SDS011;62039;50.000;9.064;2023-08-24T04:59:07;3.07;;;2.10;;
73733;SDS011;62039;50.000;9.064;2023-08-24T05:01:34;2.33;;;2.10;;
73733;SDS011;62039;50.000;9.064;2023-08-24T05:04:01;2.00;;;1.80;;
73733;SDS011;62039;50.000;9.064;2023-08-24T05:06:29;2.20;;;2.00;;
73733;SDS011;62039;50.000;9.064;2023-08-24T05:08:56;2.33;;;2.13;;
73733;SDS011;62039;50.000;9.064;2023-08-24T05:11:26;4.00;;;2.07;;
73733;SDS011;62039;50.000;9.064;2023-08-24T05:13:54;2.23;;;2.03;;
73733;SDS011;62039;50.000;9.064;2023-08-24T05:16:21;2.37;;;2.10;;
73733;SDS011;62039;50.000;9.064;2023-08-24T05:18:48;2.67;;;2.20;;
73733;SDS011;62039;50.000;9.064;2023-08-24T05:21:15;2.23;;;1.83;;
73733;SDS011;62039;50.000;9.064;2023-08-24T05:23:42;4.30;;;2.23;;
73733;SDS011;62039;50.000;9.064;2023-08-24T05:26:10;5.23;;;2.70;;
73733;SDS011;62039;50.000;9.064;2023-08-24T05:28:39;3.30;;;2.27;;
73733;SDS011;62039;50.000;9.064;2023-08-24T05:31:06;5.13;;;2.40;;
73733;SDS011;62039;50.000;9.064;2023-08-24T05:33:33;3.33;;;2.27;;
73733;SDS011;62039;50.000;9.064;2023-08-24T05:36:00;2.70;;;2.20;;
73733;SDS011;62039;50.000;9.064;2023-08-24T05:38:27;2.63;;;2.00;;
73733;SDS011;62039;50.000;9.064;2023-08-24T05:40:54;3.07;;;2.10;;
73733;SDS011;62039;50.000;9.064;2023-08-24T05:43:21;2.40;;;2.20;;
73733;SDS011;62039;50.000;9.064;2023-08-24T05:45:51;2.20;;;2.00;;
73733;SDS011;62039;50.000;9.064;2023-08-24T05:48:18;2.60;;;2.40;;
73733;SDS011;62039;50.000;9.064;2023-08-24T05:50:46;3.03;;;2.80;;
73733;SDS011;62039;50.000;9.064;2023-08-24T05:53:13;4.13;;;2.83;;
73733;SDS011;62039;50.000;9.064;2023-08-24T05:55:40;3.60;;;2.80;;
73733;SDS011;62039;50.000;9.064;2023-08-24T05:58:07;2.60;;;2.37;;
73733;SDS011;62039;50.000;9.064;2023-08-24T06:00:34;2.90;;;2.60;;
73733;SDS011;62039;50.000;9.064;2023-08-24T06:03:04;2.90;;;2.70;;
73733;SDS011;62039;50.000;9.064;2023-08-24T06:05:31;3.13;;;2.50;;
73733;SDS011;62039;50.000;9.064;2023-08-24T06:07:58;3.90;;;2.47;;
73733;SDS011;62039;50.000;9.064;2023-08-24T06:10:25;6.40;;;2.63;;
73733;SDS011;62039;50.000;9.064;2023-08-24T06:12:52;2.67;;;2.43;;
73733;SDS011;62039;50.000;9.064;2023-08-24T06:15:19;4.50;;;2.60;;
73733;SDS011;62039;50.000;9.064;2023-08-24T06:17:46;2.53;;;2.00;;
73733;SDS011;62039;50.000;9.064;2023-08-24T06:20:16;2.93;;;2.57;;
73733;SDS011;62039;50.000;9.064;2023-08-24T06:22:43;2.47;;;2.27;;
73733;SDS011;62039;50.000;9.064;2023-08-24T06:25:10;3.57;;;2.50;;
73733;SDS011;62039;50.000;9.064;2023-08-24T06:27:37;2.50;;;2.30;;
73733;SDS011;62039;50.000;9.064;2023-08-24T06:30:05;2.70;;;2.20;;
73733;SDS011;62039;50.000;9.064;2023-08-24T06:32:32;3.07;;;2.30;;
73733;SDS011;62039;50.000;9.064;2023-08-24T06:34:59;2.77;;;2.40;;
73733;SDS011;62039;50.000;9.064;2023-08-24T06:37:29;2.43;;;2.20;;
73733;SDS011;62039;50.000;9.064;2023-08-24T06:39:56;2.27;;;2.03;;
73733;SDS011;62039;50.000;9.064;2023-08-24T06:42:23;2.57;;;2.37;;
73733;SDS011;62039;50.000;9.064;2023-08-24T06:44:50;2.37;;;2.17;;
73733;SDS011;62039;50.000;9.064;2023-08-24T06:47:17;3.00;;;2.00;;
73733;SDS011;62039;50.000;9.064;2023-08-24T06:49:44;3.53;;;2.30;;
73733;SDS011;62039;50.000;9.064;2023-08-24T06:52:11;4.00;;;2.30;;
73733;SDS011;62039;50.000;9.064;2023-08-24T06:54:41;3.30;;;2.33;;
73733;SDS011;62039;50.000;9.064;2023-08-24T06:57:08;3.53;;;2.40;;
73733;SDS011;62039;50.000;9.064;2023-08-24T06:59:35;2.17;;;2.07;;
73733;SDS011;62039;50.000;9.064;2023-08-24T07:02:02;2.40;;;2.20;;
73733;SDS011;62039;50.000;9.064;2023-08-24T07:04:29;3.77;;;2.37;;
73733;SDS011;62039;50.000;9.064;2023-08-24T07:06:56;3.57;;;2.10;;
73733;SDS011;62039;50.000;9.064;2023-08-24T07:09:23;2.13;;;1.93;;
73733;SDS011;62039;50.000;9.064;2023-08-24T07:11:52;2.40;;;2.20;;
73733;SDS011;62039;50.000;9.064;2023-08-24T07:14:19;2.57;;;1.97;;
73733;SDS011;62039;50.000;9.064;2023-08-24T07:16:46;2.80;;;2.60;;
73733;SDS011;62039;50.000;9.064;2023-08-24T07:19:13;2.70;;;2.50;;
73733;SDS011;62039;50.000;9.064;2023-08-24T07:21:42;6.13;;;4.67;;
73733;SDS011;62039;50.000;9.064;2023-08-24T07:24:09;6.70;;;3.90;;
73733;SDS011;62039;50.000;9.064;2023-08-24T07:26:36;4.23;;;3.20;;
73733;SDS011;62039;50.000;9.064;2023-08-24T07:29:05;3.17;;;2.33;;
73733;SDS011;62039;50.000;9.064;2023-08-24T07:31:32;2.77;;;2.40;;
73733;SDS011;62039;50.000;9.064;2023-08-24T07:34:02;3.97;;;2.00;;
73733;SDS011;62039;50.000;9.064;2023-08-24T07:36:29;2.20;;;2.00;;
73733;SDS011;62039;50.000;9.064;2023-08-24T07:38:56;3.03;;;2.57;;
73733;SDS011;62039;50.000;9.064;2023-08-24T07:41:23;2.47;;;2.27;;
73733;SDS011;62039;50.000;9.064;2023-08-24T07:43:50;1.90;;;1.80;;
73733;SDS011;62039;50.000;9.064;2023-08-24T07:46:19;1.80;;;1.70;;
73733;SDS011;62039;50.000;9.064;2023-08-24T07:48:46;1.87;;;1.77;;
73733;SDS011;62039;50.000;9.064;2023-08-24T07:51:13;2.47;;;1.80;;
73733;SDS011;62039;50.000;9.064;2023-08-24T07:53:40;1.90;;;1.50;;
73733;SDS011;62039;50.000;9.064;2023-08-24T07:56:07;2.57;;;1.57;;
73733;SDS011;62039;50.000;9.064;2023-08-24T07:58:34;1.70;;;1.60;;
73733;SDS011;62039;50.000;9.064;2023-08-24T08:01:01;3.83;;;2.27;;
73733;SDS011;62039;50.000;9.064;2023-08-24T08:03:31;2.10;;;1.70;;
73733;SDS011;62039;50.000;9.064;2023-08-24T08:05:58;1.57;;;1.47;;
73733;SDS011;62039;50.000;9.064;2023-08-24T08:08:25;2.70;;;1.93;;
73733;SDS011;62039;50.000;9.064;2023-08-24T08:10:57;1.80;;;1.70;;
73733;SDS011;62039;50.000;9.064;2023-08-24T08:13:24;2.27;;;1.27;;
73733;SDS011;62039;50.000;9.064;2023-08-24T08:15:52;1.60;;;1.50;;
73733;SDS011;62039;50.000;9.064;2023-08-24T08:18:19;2.07;;;1.60;;
73733;SDS011;62039;50.000;9.064;2023-08-24T08:20:50;2.53;;;1.70;;
73733;SDS011;62039;50.000;9.064;2023-08-24T08:23:17;1.73;;;1.63;;
73733;SDS011;62039;50.000;9.064;2023-08-24T08:25:44;1.73;;;1.60;;
73733;SDS011;62039;50.000;9.064;2023-08-24T08:28:11;1.83;;;1.73;;
73733;SDS011;62039;50.000;9.064;2023-08-24T08:30:38;1.97;;;1.70;;
73733;SDS011;62039;50.000;9.064;2023-08-24T08:33:06;2.73;;;1.83;;
73733;SDS011;62039;50.000;9.064;2023-08-24T08:35:33;2.73;;;1.60;;
73733;SDS011;62039;50.000;9.064;2023-08-24T08:38:02;1.63;;;1.53;;
73733;SDS011;62039;50.000;9.064;2023-08-24T08:40:32;3.27;;;1.50;;
73733;SDS011;62039;50.000;9.064;2023-08-24T08:42:59;2.23;;;1.50;;
73733;SDS011;62039;50.000;9.064;2023-08-24T08:45:26;2.20;;;1.40;;
73733;SDS011;62039;50.000;9.064;2023-08-24T08:47:56;1.60;;;1.40;;
73733;SDS011;62039;50.000;9.064;2023-08-24T08:50:24;1.60;;;1.50;;
73733;SDS011;62039;50.000;9.064;2023-08-24T08:52:53;2.17;;;1.53;;
73733;SDS011;62039;50.000;9.064;2023-08-24T08:55:23;2.63;;;1.70;;
73733;SDS011;62039;50.000;9.064;2023-08-24T08:57:51;2.00;;;1.80;;
73733;SDS011;62039;50.000;9.064;2023-08-24T09:00:22;2.60;;;2.13;;
73733;SDS011;62039;50.000;9.064;2023-08-24T09:02:51;4.30;;;2.40;;
73733;SDS011;62039;50.000;9.064;2023-08-24T09:05:22;3.30;;;3.00;;
73733;SDS011;62039;50.000;9.064;2023-08-24T09:07:50;2.57;;;2.07;;
73733;SDS011;62039;50.000;9.064;2023-08-24T09:10:17;3.50;;;2.30;;
73733;SDS011;62039;50.000;9.064;2023-08-24T09:12:47;2.80;;;2.33;;
73733;SDS011;62039;50.000;9.064;2023-08-24T09:15:14;3.17;;;2.60;;
73733;SDS011;62039;50.000;9.064;2023-08-24T09:17:49;3.57;;;2.30;;
73733;SDS011;62039;50.000;9.064;2023-08-24T09:20:17;3.43;;;2.63;;
73733;SDS011;62039;50.000;9.064;2023-08-24T09:22:44;2.07;;;1.87;;
73733;SDS011;62039;50.000;9.064;2023-08-24T09:25:11;2.00;;;1.87;;
73733;SDS011;62039;50.000;9.064;2023-08-24T09:27:38;2.17;;;1.97;;
73733;SDS011;62039;50.000;9.064;2023-08-24T09:30:09;2.23;;;1.90;;
73733;SDS011;62039;50.000;9.064;2023-08-24T09:32:36;2.37;;;2.13;;
73733;SDS011;62039;50.000;9.064;2023-08-24T09:35:04;2.33;;;1.90;;
73733;SDS011;62039;50.000;9.064;2023-08-24T09:37:35;2.53;;;1.97;;
73733;SDS011;62039;50.000;9.064;2023-08-24T09:40:03;2.43;;;2.00;;
73733;SDS011;62039;50.000;9.064;2023-08-24T09:42:31;2.10;;;1.90;;
73733;SDS011;62039;50.000;9.064;2023-08-24T09:45:03;2.30;;;2.10;;
73733;SDS011;62039;50.000;9.064;2023-08-24T09:47:33;1.90;;;1.80;;
73733;SDS011;62039;50.000;9.064;2023-08-24T09:50:00;2.30;;;2.10;;
73733;SDS011;62039;50.000;9.064;2023-08-24T09:52:30;2.03;;;1.60;;
73733;SDS011;62039;50.000;9.064;2023-08-24T09:54:59;1.90;;;1.80;;
73733;SDS011;62039;50.000;9.064;2023-08-24T09:57:30;1.87;;;1.63;;
73733;SDS011;62039;50.000;9.064;2023-08-24T09:59:59;1.60;;;1.50;;
73733;SDS011;62039;50.000;9.064;2023-08-24T10:02:26;2.43;;;1.90;;
73733;SDS011;62039;50.000;9.064;2023-08-24T10:05:03;1.63;;;1.53;;
73733;SDS011;62039;50.000;9.064;2023-08-24T10:07:32;2.87;;;1.80;;
73733;SDS011;62039;50.000;9.064;2023-08-24T10:10:01;2.13;;;1.70;;
73733;SDS011;62039;50.000;9.064;2023-08-24T10:12:30;1.67;;;1.57;;
73733;SDS011;62039;50.000;9.064;2023-08-24T10:15:02;5.03;;;2.40;;
73733;SDS011;62039;50.000;9.064;2023-08-24T10:17:33;2.47;;;2.03;;
73733;SDS011;62039;50.000;9.064;2023-08-24T10:20:02;3.07;;;2.40;;
73733;SDS011;62039;50.000;9.064;2023-08-24T10:22:31;3.43;;;2.30;;
73733;SDS011;62039;50.000;9.064;2023-08-24T10:25:00;2.47;;;2.00;;
73733;SDS011;62039;50.000;9.064;2023-08-24T10:27:27;3.87;;;2.13;;
73733;SDS011;62039;50.000;9.064;2023-08-24T10:29:55;2.30;;;2.10;;
73733;SDS011;62039;50.000;9.064;2023-08-24T10:32:22;2.47;;;1.80;;
73733;SDS011;62039;50.000;9.064;2023-08-24T10:34:53;2.00;;;1.90;;
73733;SDS011;62039;50.000;9.064;2023-08-24T10:37:24;2.27;;;2.00;;
73733;SDS011;62039;50.000;9.064;2023-08-24T10:39:52;2.63;;;1.97;;
73733;SDS011;62039;50.000;9.064;2023-08-24T10:42:19;6.60;;;2.27;;
73733;SDS011;62039;50.000;9.064;2023-08-24T10:44:47;2.20;;;2.00;;
73733;SDS011;62039;50.000;9.064;2023-08-24T10:47:14;2.10;;;1.90;;
73733;SDS011;62039;50.000;9.064;2023-08-24T10:49:44;2.73;;;2.10;;
73733;SDS011;62039;50.000;9.064;2023-08-24T10:52:27;2.20;;;1.97;;
73733;SDS011;62039;50.000;9.064;2023-08-24T10:54:57;2.30;;;2.00;;
73733;SDS011;62039;50.000;9.064;2023-08-24T10:57:31;2.40;;;1.93;;
73733;SDS011;62039;50.000;9.064;2023-08-24T11:00:07;2.57;;;1.70;;
73733;SDS011;62039;50.000;9.064;2023-08-24T11:02:42;2.70;;;2.03;;
73733;SDS011;62039;50.000;9.064;2023-08-24T11:05:17;2.43;;;1.73;;
73733;SDS011;62039;50.000;9.064;2023-08-24T11:07:52;2.40;;;1.70;;
73733;SDS011;62039;50.000;9.064;2023-08-24T11:10:20;3.07;;;1.80;;
73733;SDS011;62039;50.000;9.064;2023-08-24T11:15:37;1.47;;;1.37;;
73733;SDS011;62039;50.000;9.064;2023-08-24T11:20:55;2.80;;;1.40;;
73733;SDS011;62039;50.000;9.064;2023-08-24T11:23:25;2.80;;;1.40;;
73733;SDS011;62039;50.000;9.064;2023-08-24T11:25:53;2.13;;;1.50;;
73733;SDS011;62039;50.000;9.064;2023-08-24T11:28:21;2.80;;;1.73;;
73733;SDS011;62039;50.000;9.064;2023-08-24T11:30:49;1.55;;;1.10;;
73733;SDS011;62039;50.000;9.064;2023-08-24T11:33:17;1.30;;;1.20;;
73733;SDS011;62039;50.000;9.064;2023-08-24T11:35:53;1.63;;;1.40;;
73733;SDS011;62039;50.000;9.064;2023-08-24T11:38:21;1.65;;;1.23;;
73733;SDS011;62039;50.000;9.064;2023-08-24T11:40:51;1.50;;;1.40;;
73733;SDS011;62039;50.000;9.064;2023-08-24T11:43:24;1.38;;;1.27;;
73733;SDS011;62039;50.000;9.064;2023-08-24T11:45:52;1.63;;;1.33;;
73733;SDS011;62039;50.000;9.064;2023-08-24T11:48:23;1.85;;;1.15;;
73733;SDS011;62039;50.000;9.064;2023-08-24T11:50:50;1.75;;;1.63;;
73733;SDS011;62039;50.000;9.064;2023-08-24T11:53:17;2.00;;;1.38;;
73733;SDS011;62039;50.000;9.064;2023-08-24T11:55:45;1.60;;;1.50;;
73733;SDS011;62039;50.000;9.064;2023-08-24T11:58:31;1.60;;;1.23;;
73733;SDS011;62039;50.000;9.064;2023-08-24T12:00:58;1.63;;;1.40;;
73733;SDS011;62039;50.000;9.064;2023-08-24T12:03:26;1.42;;;1.30;;
73733;SDS011;62039;50.000;9.064;2023-08-24T12:05:54;1.50;;;1.40;;
73733;SDS011;62039;50.000;9.064;2023-08-24T12:08:25;1.85;;;1.40;;
73733;SDS011;62039;50.000;9.064;2023-08-24T12:10:52;1.73;;;1.27;;
73733;SDS011;62039;50.000;9.064;2023-08-24T12:13:19;1.63;;;1.50;;
73733;SDS011;62039;50.000;9.064;2023-08-24T12:15:49;2.53;;;1.38;;
73733;SDS011;62039;50.000;9.064;2023-08-24T12:18:18;1.42;;;1.20;;
73733;SDS011;62039;50.000;9.064;2023-08-24T12:20:45;2.42;;;1.60;;
73733;SDS011;62039;50.000;9.064;2023-08-24T12:23:14;2.35;;;1.40;;
73733;SDS011;62039;50.000;9.064;2023-08-24T12:25:42;2.38;;;1.50;;
73733;SDS011;62039;50.000;9.064;2023-08-24T12:28:10;1.48;;;1.27;;
73733;SDS011;62039;50.000;9.064;2023-08-24T12:30:50;2.00;;;1.33;;
73733;SDS011;62039;50.000;9.064;2023-08-24T12:33:25;3.05;;;1.40;;
73733;SDS011;62039;50.000;9.064;2023-08-24T12:35:53;2.85;;;1.38;;
73733;SDS011;62039;50.000;9.064;2023-08-24T12:38:21;1.88;;;1.50;;
73733;SDS011;62039;50.000;9.064;2023-08-24T12:40:48;1.88;;;1.50;;
73733;SDS011;62039;50.000;9.064;2023-08-24T12:43:15;1.35;;;1.25;;
73733;SDS011;62039;50.000;9.064;2023-08-24T12:45:42;3.53;;;1.35;;
73733;SDS011;62039;50.000;9.064;2023-08-24T12:48:12;2.65;;;1.73;;
73733;SDS011;62039;50.000;9.064;2023-08-24T12:50:39;1.92;;;1.50;;
73733;SDS011;62039;50.000;9.064;2023-08-24T12:53:06;1.75;;;1.65;;
73733;SDS011;62039;50.000;9.064;2023-08-24T12:55:33;1.38;;;1.10;;
73733;SDS011;62039;50.000;9.064;2023-08-24T12:58:01;1.50;;;1.40;;
73733;SDS011;62039;50.000;9.064;2023-08-24T13:00:29;1.60;;;1.50;;
73733;SDS011;62039;50.000;9.064;2023-08-24T13:02:56;1.73;;;1.50;;
73733;SDS011;62039;50.000;9.064;2023-08-24T13:05:25;3.25;;;1.30;;
73733;SDS011;62039;50.000;9.064;2023-08-24T13:07:52;1.60;;;1.50;;
73733;SDS011;62039;50.000;9.064;2023-08-24T13:10:19;1.38;;;1.27;;
73733;SDS011;62039;50.000;9.064;2023-08-24T13:12:46;1.58;;;1.48;;
73733;SDS011;62039;50.000;9.064;2023-08-24T13:15:13;1.60;;;1.40;;
73733;SDS011;62039;50.000;9.064;2023-08-24T13:17:40;1.80;;;1.45;;
73733;SDS011;62039;50.000;9.064;2023-08-24T13:20:08;2.60;;;1.52;;
73733;SDS011;62039;50.000;9.064;2023-08-24T13:22:37;1.40;;;1.30;;
73733;SDS011;62039;50.000;9.064;2023-08-24T13:25:05;1.70;;;1.48;;
73733;SDS011;62039;50.000;9.064;2023-08-24T13:27:33;1.67;;;1.48;;
73733;SDS011;62039;50.000;9.064;2023-08-24T13:30:00;3.17;;;1.38;;
73733;SDS011;62039;50.000;9.064;2023-08-24T13:32:27;1.80;;;1.60;;
73733;SDS011;62039;50.000;9.064;2023-08-24T13:34:54;1.40;;;1.30;;
73733;SDS011;62039;50.000;9.064;2023-08-24T13:37:21;1.90;;;1.80;;
73733;SDS011;62039;50.000;9.064;2023-08-24T13:39:51;1.52;;;1.23;;
73733;SDS011;62039;50.000;9.064;2023-08-24T13:42:18;2.50;;;1.50;;
73733;SDS011;62039;50.000;9.064;2023-08-24T13:44:45;1.67;;;1.38;;
73733;SDS011;62039;50.000;9.064;2023-08-24T13:47:12;2.35;;;1.55;;
73733;SDS011;62039;50.000;9.064;2023-08-24T13:49:39;1.75;;;1.30;;
73733;SDS011;62039;50.000;9.064;2023-08-24T13:52:07;1.73;;;1.30;;
73733;SDS011;62039;50.000;9.064;2023-08-24T13:54:34;1.77;;;1.50;;
73733;SDS011;62039;50.000;9.064;2023-08-24T13:57:04;2.22;;;1.42;;
73733;SDS011;62039;50.000;9.064;2023-08-24T13:59:31;1.50;;;1.40;;
73733;SDS011;62039;50.000;9.064;2023-08-24T14:01:59;1.90;;;1.45;;
73733;SDS011;62039;50.000;9.064;2023-08-24T14:04:26;3.25;;;1.27;;
73733;SDS011;62039;50.000;9.064;2023-08-24T14:06:53;1.88;;;1.40;;
73733;SDS011;62039;50.000;9.064;2023-08-24T14:09:20;2.10;;;1.40;;
73733;SDS011;62039;50.000;9.064;2023-08-24T14:11:47;1.92;;;1.40;;
73733;SDS011;62039;50.000;9.064;2023-08-24T14:14:16;1.50;;;1.40;;
73733;SDS011;62039;50.000;9.064;2023-08-24T14:16:43;2.60;;;1.40;;
73733;SDS011;62039;50.000;9.064;2023-08-24T14:19:11;1.55;;;1.45;;
73733;SDS011;62039;50.000;9.064;2023-08-24T14:21:38;1.88;;;1.55;;
73733;SDS011;62039;50.000;9.064;2023-08-24T14:24:08;2.72;;;1.63;;
73733;SDS011;62039;50.000;9.064;2023-08-24T14:26:35;2.10;;;1.52;;
73733;SDS011;62039;50.000;9.064;2023-08-24T14:29:02;1.77;;;1.63;;
73733;SDS011;62039;50.000;9.064;2023-08-24T14:31:32;2.53;;;1.40;;
73733;SDS011;62039;50.000;9.064;2023-08-24T14:33:59;2.00;;;1.50;;
73733;SDS011;62039;50.000;9.064;2023-08-24T14:36:26;2.58;;;1.50;;
73733;SDS011;62039;50.000;9.064;2023-08-24T14:38:54;2.08;;;1.40;;
73733;SDS011;62039;50.000;9.064;2023-08-24T14:41:21;1.67;;;1.42;;
73733;SDS011;62039;50.000;9.064;2023-08-24T14:43:48;1.90;;;1.55;;
73733;SDS011;62039;50.000;9.064;2023-08-24T14:46:15;1.55;;;1.45;;
73733;SDS011;62039;50.000;9.064;2023-08-24T14:48:45;3.22;;;1.50;;
73733;SDS011;62039;50.000;9.064;2023-08-24T14:51:12;1.70;;;1.55;;
73733;SDS011;62039;50.000;9.064;2023-08-24T14:53:39;2.33;;;1.55;;
73733;SDS011;62039;50.000;9.064;2023-08-24T14:56:06;2.38;;;1.67;;
73733;SDS011;62039;50.000;9.064;2023-08-24T14:58:33;1.75;;;1.30;;